Capitol Logistics 2441

Operating for GTI



KLAX
Los Angeles International Airport
Los Angeles, California
RKSI
Incheon International Airport
Seoul,

Route Details

Aircraft Information
Primary: Boeing 747-400BCF
Backup: Not Available
Route Data
Distance: 5989nm
Duration: 13h 03m
Recm'd Route: SUMMR2 MCKEY CYPRS PAINT DACEM 40N30 44N40 49N50 54N60 CDB J623 SPY G469 ONEIL G469 NYMPH R220 NRKEY R220 NIPPI NANNO NODAN R217 ASTER Y514 SDE R217 GTC Y142 SAMON Y14 SUGNO Y16 SAPRA G585 GUKDO GUKDO1N
Origin Wx: KLAX 191153Z 00000KT 6SM BR FEW005 OVC009 17/16 A2980 RMK AO2 SLP088 T01720156 10178 20172 58001
Dest. Wx: RKSI 191230Z 31004KT 3500 BR FEW009 SCT200 19/17 Q1002 NOSIG
Notes: 1X PER WEEK